createdAt,value
2018-10-18T00:00:49.250Z,44.67
2018-10-18T00:03:16.521Z,41.80
2018-10-18T00:05:43.657Z,38.97
2018-10-18T00:08:10.844Z,38.07
2018-10-18T00:10:38.103Z,38.00
2018-10-18T00:13:05.276Z,36.27
2018-10-18T00:15:32.466Z,39.80
2018-10-18T00:17:59.682Z,44.93
2018-10-18T00:20:26.853Z,42.97
2018-10-18T00:22:54.009Z,39.23
2018-10-18T00:25:21.397Z,38.83
2018-10-18T00:27:48.571Z,38.10
2018-10-18T00:30:15.964Z,37.30
2018-10-18T00:32:43.950Z,36.33
2018-10-18T00:35:11.488Z,36.27
2018-10-18T00:37:39.052Z,36.17
2018-10-18T00:40:06.954Z,37.10
2018-10-18T00:42:34.140Z,40.87
2018-10-18T00:45:01.302Z,39.17
2018-10-18T00:47:28.495Z,40.60
2018-10-18T00:49:55.702Z,41.00
2018-10-18T00:52:23.890Z,37.07
2018-10-18T00:54:51.164Z,41.73
2018-10-18T00:57:18.356Z,38.63
2018-10-18T00:59:45.520Z,36.30
2018-10-18T01:02:12.891Z,37.20
2018-10-18T01:04:40.018Z,39.73
2018-10-18T01:07:07.190Z,41.10
2018-10-18T01:09:34.474Z,41.53
2018-10-18T01:12:01.675Z,41.77
2018-10-18T01:14:28.839Z,39.70
2018-10-18T01:17:01.891Z,38.87
2018-10-18T01:19:29.402Z,41.93
2018-10-18T01:21:56.552Z,41.80
2018-10-18T01:24:23.817Z,42.47
2018-10-18T01:26:51.019Z,39.80
2018-10-18T01:29:18.187Z,41.93
2018-10-18T01:31:45.514Z,38.87
2018-10-18T01:34:13.006Z,40.93
2018-10-18T01:36:40.167Z,42.80
2018-10-18T01:39:07.635Z,44.23
2018-10-18T01:41:34.805Z,42.20
2018-10-18T01:44:02.021Z,37.57
2018-10-18T01:46:29.226Z,43.27
2018-10-18T01:48:56.381Z,44.90
2018-10-18T01:51:23.529Z,40.73
2018-10-18T01:53:50.737Z,39.93
2018-10-18T01:56:17.902Z,41.43
2018-10-18T01:58:45.042Z,38.17
2018-10-18T02:01:12.834Z,37.93
2018-10-18T02:03:39.985Z,37.37
2018-10-18T02:06:07.368Z,41.77
2018-10-18T02:08:39.938Z,36.53
2018-10-18T02:11:07.442Z,37.37
2018-10-18T02:13:34.675Z,38.57
2018-10-18T02:16:01.869Z,37.00
2018-10-18T02:18:29.025Z,36.03
2018-10-18T02:20:56.255Z,39.43
2018-10-18T02:23:23.557Z,43.17
2018-10-18T02:25:50.745Z,42.73
2018-10-18T02:28:17.901Z,40.07
2018-10-18T02:30:45.106Z,43.07
2018-10-18T02:33:12.272Z,42.47
2018-10-18T02:35:39.437Z,43.13
2018-10-18T02:38:06.821Z,43.80
2018-10-18T02:40:34.541Z,45.20
2018-10-18T02:43:01.727Z,43.37
2018-10-18T02:45:29.316Z,47.33
2018-10-18T02:47:56.479Z,45.87
2018-10-18T02:50:23.675Z,43.10
2018-10-18T02:52:51.056Z,39.10
2018-10-18T02:55:18.205Z,38.07
2018-10-18T02:57:45.383Z,39.60
2018-10-18T03:00:12.661Z,43.50
2018-10-18T03:02:39.815Z,45.40
2018-10-18T03:05:07.133Z,46.27
2018-10-18T03:07:34.350Z,44.10
2018-10-18T03:10:01.578Z,45.47
2018-10-18T03:12:28.787Z,39.60
2018-10-18T03:14:56.084Z,37.83
2018-10-18T03:17:23.261Z,38.30
2018-10-18T03:19:50.871Z,38.10
2018-10-18T03:22:18.120Z,40.97
2018-10-18T03:24:45.301Z,42.87
2018-10-18T03:27:12.465Z,38.27
2018-10-18T03:29:39.669Z,37.77
2018-10-18T03:32:06.914Z,39.70
2018-10-18T03:34:34.085Z,42.43
2018-10-18T03:37:01.382Z,41.77
2018-10-18T03:39:28.581Z,42.80
2018-10-18T03:41:55.834Z,41.20
2018-10-18T03:44:23.854Z,38.63
2018-10-18T03:46:51.025Z,40.17
2018-10-18T03:49:18.205Z,40.80
2018-10-18T03:51:45.505Z,39.77
2018-10-18T03:54:12.737Z,41.37
2018-10-18T03:56:39.842Z,40.17
2018-10-18T03:59:07.470Z,41.77
2018-10-18T04:01:34.682Z,41.53
2018-10-18T04:04:01.865Z,42.63
2018-10-18T04:06:29.064Z,39.63
2018-10-18T04:08:56.216Z,37.63
2018-10-18T04:11:23.419Z,36.13
2018-10-18T04:13:50.666Z,38.27
2018-10-18T04:16:17.898Z,42.27
2018-10-18T04:18:45.046Z,38.00
2018-10-18T04:21:12.374Z,35.83
2018-10-18T04:23:39.562Z,36.50
2018-10-18T04:26:06.726Z,34.73
2018-10-18T04:28:33.943Z,36.90
2018-10-18T04:31:02.315Z,40.67
2018-10-18T04:33:29.541Z,36.20
2018-10-18T04:35:56.832Z,40.50
2018-10-18T04:38:24.013Z,40.47
2018-10-18T04:40:51.239Z,42.33
2018-10-18T04:43:18.532Z,45.20
2018-10-18T04:45:45.701Z,38.27
2018-10-18T04:48:13.293Z,38.97
2018-10-18T04:50:40.665Z,40.67
2018-10-18T04:53:08.009Z,37.70
2018-10-18T04:55:35.198Z,35.50
2018-10-18T04:58:02.434Z,36.03
2018-10-18T05:00:29.648Z,38.77
2018-10-18T05:02:56.953Z,41.57
2018-10-18T05:05:36.623Z,37.53
2018-10-18T05:08:03.902Z,37.70
2018-10-18T05:10:31.089Z,42.50
2018-10-18T05:12:58.366Z,42.30
2018-10-18T05:15:25.616Z,43.60
2018-10-18T05:17:52.836Z,38.27
2018-10-18T05:20:20.126Z,40.33
2018-10-18T05:22:47.314Z,37.57
2018-10-18T05:25:14.544Z,37.50
2018-10-18T05:27:41.796Z,38.27
2018-10-18T05:30:09.000Z,40.83
2018-10-18T05:32:36.127Z,37.27
2018-10-18T05:35:03.280Z,38.43
2018-10-18T05:37:30.447Z,40.50
2018-10-18T05:39:57.545Z,41.83
2018-10-18T05:42:24.679Z,44.07
2018-10-18T05:44:51.831Z,41.20
2018-10-18T05:47:19.298Z,40.03
2018-10-18T05:49:46.421Z,40.73
2018-10-18T05:52:13.508Z,37.73
2018-10-18T05:54:40.613Z,38.07
2018-10-18T05:57:07.783Z,33.93
2018-10-18T05:59:34.877Z,35.10
2018-10-18T06:02:01.972Z,35.23
2018-10-18T06:04:29.168Z,36.97
2018-10-18T06:06:56.656Z,34.33
2018-10-18T06:09:28.096Z,35.37
2018-10-18T06:11:55.262Z,35.03
2018-10-18T06:14:22.462Z,38.77
2018-10-18T06:16:49.572Z,38.07
2018-10-18T06:19:16.834Z,41.27
2018-10-18T06:21:44.371Z,41.07
2018-10-18T06:24:11.484Z,41.13
2018-10-18T06:26:38.651Z,42.90
2018-10-18T06:29:05.802Z,43.10
2018-10-18T06:31:32.905Z,43.13
2018-10-18T06:34:00.034Z,45.43
2018-10-18T06:36:27.143Z,44.77
2018-10-18T06:38:54.247Z,45.53
2018-10-18T06:41:21.444Z,43.53
2018-10-18T06:43:48.544Z,41.57
2018-10-18T06:46:15.703Z,41.23
2018-10-18T06:48:42.944Z,43.57
2018-10-18T06:51:10.483Z,41.33
2018-10-18T06:53:37.911Z,43.03
2018-10-18T06:56:05.096Z,47.47
2018-10-18T06:58:32.194Z,51.00
2018-10-18T07:00:59.295Z,52.27
2018-10-18T07:03:26.434Z,50.50
2018-10-18T07:05:53.530Z,53.43
2018-10-18T07:08:20.600Z,53.27
2018-10-18T07:10:47.804Z,52.93
2018-10-18T07:13:14.951Z,50.90
2018-10-18T07:15:42.034Z,57.57
2018-10-18T07:18:09.195Z,65.10
2018-10-18T07:20:36.263Z,60.47
2018-10-18T07:23:03.403Z,69.73
2018-10-18T07:25:30.604Z,65.40
2018-10-18T07:27:57.712Z,59.70
2018-10-18T07:30:24.792Z,56.60
2018-10-18T07:32:51.960Z,51.90
2018-10-18T07:35:19.100Z,50.30
2018-10-18T07:37:46.189Z,50.43
2018-10-18T07:40:14.627Z,50.80
2018-10-18T07:42:41.745Z,51.70
2018-10-18T07:45:09.490Z,50.63
2018-10-18T07:47:36.692Z,48.13
2018-10-18T07:50:04.113Z,46.30
2018-10-18T07:52:31.215Z,45.77
2018-10-18T07:54:58.357Z,47.37
2018-10-18T07:57:25.463Z,45.80
2018-10-18T07:59:52.587Z,45.00
2018-10-18T08:02:19.739Z,45.27
2018-10-18T08:04:46.833Z,45.70
2018-10-18T08:07:14.049Z,48.77
2018-10-18T08:09:41.179Z,51.03
2018-10-18T08:12:08.269Z,56.07
2018-10-18T08:14:35.366Z,54.70
2018-10-18T08:17:02.595Z,55.77
2018-10-18T08:19:29.640Z,56.77
2018-10-18T08:21:56.756Z,59.00
2018-10-18T08:24:24.112Z,63.63
2018-10-18T08:26:51.196Z,65.83
2018-10-18T08:29:18.346Z,64.90
2018-10-18T08:31:45.711Z,66.70
2018-10-18T08:34:12.897Z,64.13
2018-10-18T08:36:40.061Z,66.53
2018-10-18T08:39:08.770Z,66.37
2018-10-18T08:41:35.984Z,64.43
2018-10-18T08:44:03.205Z,64.10
2018-10-18T08:46:30.433Z,60.80
2018-10-18T08:48:57.660Z,64.10
2018-10-18T08:51:24.799Z,64.30
2018-10-18T08:53:51.975Z,62.20
2018-10-18T08:56:19.172Z,64.33
2018-10-18T08:58:46.313Z,63.00
2018-10-18T09:01:13.620Z,62.47
2018-10-18T09:03:40.714Z,62.10
2018-10-18T09:06:07.861Z,59.93
2018-10-18T09:08:35.062Z,58.50
2018-10-18T09:11:02.221Z,60.20
2018-10-18T09:13:29.347Z,57.70
2018-10-18T09:15:56.649Z,57.17
2018-10-18T09:18:23.769Z,58.13
2018-10-18T09:20:50.924Z,56.60
2018-10-18T09:23:18.097Z,55.60
2018-10-18T09:25:45.227Z,55.27
2018-10-18T09:28:12.383Z,54.40
2018-10-18T09:30:39.580Z,56.93
2018-10-18T09:33:06.820Z,55.40
2018-10-18T09:35:33.967Z,53.37
2018-10-18T09:38:01.216Z,55.97
2018-10-18T09:40:28.365Z,53.40
2018-10-18T09:42:58.553Z,54.80
2018-10-18T09:45:26.000Z,54.27
2018-10-18T09:47:53.124Z,53.97
2018-10-18T09:50:20.353Z,53.43
2018-10-18T09:52:47.558Z,52.63
2018-10-18T09:55:14.765Z,50.00
2018-10-18T09:57:41.908Z,50.70
2018-10-18T10:00:14.804Z,51.37
2018-10-18T10:02:47.581Z,47.33
2018-10-18T10:05:14.865Z,48.47
2018-10-18T10:07:42.010Z,47.57
2018-10-18T10:10:09.193Z,47.00
2018-10-18T10:12:36.362Z,47.13
2018-10-18T10:15:04.247Z,47.57
2018-10-18T10:17:31.451Z,46.07
2018-10-18T10:19:58.613Z,45.80
2018-10-18T10:22:25.758Z,44.57
2018-10-18T10:24:52.944Z,43.97
2018-10-18T10:27:20.148Z,42.97
2018-10-18T10:29:47.292Z,41.10
2018-10-18T10:32:14.460Z,40.83
2018-10-18T10:34:41.664Z,41.13
2018-10-18T10:37:08.857Z,40.23
2018-10-18T10:39:36.030Z,40.20
2018-10-18T10:42:03.326Z,41.07
2018-10-18T10:44:30.508Z,41.03
2018-10-18T10:46:57.645Z,38.63
2018-10-18T10:49:24.933Z,39.50
2018-10-18T10:51:52.182Z,39.57
2018-10-18T10:54:19.353Z,39.73
2018-10-18T10:56:46.554Z,40.80
2018-10-18T10:59:15.684Z,40.50
2018-10-18T11:01:42.799Z,39.07
2018-10-18T11:04:10.037Z,41.90
2018-10-18T11:06:37.218Z,42.00
2018-10-18T11:09:06.544Z,42.67
2018-10-18T11:11:33.783Z,39.77
2018-10-18T11:14:00.929Z,40.40
2018-10-18T11:16:28.050Z,43.10
2018-10-18T11:18:55.290Z,40.30
2018-10-18T11:21:22.466Z,41.10
2018-10-18T11:23:49.585Z,40.63
2018-10-18T11:26:16.810Z,40.20
2018-10-18T11:28:43.884Z,41.47
2018-10-18T11:31:11.021Z,40.50
2018-10-18T11:33:38.320Z,41.00
2018-10-18T11:36:05.502Z,39.87
2018-10-18T11:38:33.137Z,40.27
2018-10-18T11:41:00.583Z,42.63
2018-10-18T11:43:27.764Z,40.90
2018-10-18T11:45:55.553Z,42.40
2018-10-18T11:48:22.882Z,40.90
2018-10-18T11:50:50.015Z,42.20
2018-10-18T11:53:17.190Z,40.60
2018-10-18T11:55:44.400Z,39.83
2018-10-18T11:58:12.175Z,41.67
2018-10-18T12:00:39.532Z,41.90
2018-10-18T12:03:06.722Z,43.30
2018-10-18T12:05:33.862Z,41.60
2018-10-18T12:08:01.066Z,41.20
2018-10-18T12:10:28.233Z,42.40
2018-10-18T12:12:55.349Z,44.10
2018-10-18T12:15:22.534Z,43.60
2018-10-18T12:17:49.714Z,41.53
2018-10-18T12:20:17.443Z,41.63
2018-10-18T12:22:44.573Z,41.50
2018-10-18T12:25:12.398Z,41.77
2018-10-18T12:27:39.615Z,41.37
2018-10-18T12:30:07.409Z,41.43
2018-10-18T12:32:34.726Z,41.13
2018-10-18T12:35:01.883Z,41.80
2018-10-18T12:37:29.006Z,43.17
2018-10-18T12:39:56.258Z,42.90
2018-10-18T12:42:23.448Z,40.37
2018-10-18T12:44:50.689Z,43.00
2018-10-18T12:47:17.868Z,40.60
2018-10-18T12:49:44.987Z,41.73
2018-10-18T12:52:13.352Z,40.30
2018-10-18T12:54:40.735Z,41.07
2018-10-18T12:57:09.513Z,43.70
2018-10-18T12:59:36.737Z,42.87
2018-10-18T13:02:04.048Z,43.23
2018-10-18T13:04:31.141Z,41.20
2018-10-18T13:06:58.469Z,42.30
2018-10-18T13:09:26.284Z,41.13
2018-10-18T13:11:53.503Z,39.97
2018-10-18T13:14:20.596Z,38.57
2018-10-18T13:16:47.837Z,41.23
2018-10-18T13:19:15.003Z,41.30
2018-10-18T13:21:42.158Z,38.77
2018-10-18T13:24:09.364Z,38.57
2018-10-18T13:26:36.983Z,39.23
2018-10-18T13:29:04.486Z,39.00
2018-10-18T13:31:31.767Z,36.00
2018-10-18T13:33:58.928Z,37.33
2018-10-18T13:36:26.054Z,37.70
2018-10-18T13:38:53.386Z,38.20
2018-10-18T13:41:20.500Z,40.60
2018-10-18T13:43:47.628Z,39.67
2018-10-18T13:46:14.851Z,39.40
2018-10-18T13:48:42.092Z,40.30
2018-10-18T13:51:09.295Z,38.80
2018-10-18T13:53:39.405Z,39.50
2018-10-18T13:56:06.775Z,40.77
2018-10-18T13:58:33.853Z,39.93
2018-10-18T14:01:01.026Z,40.87
2018-10-18T14:03:28.194Z,42.37
2018-10-18T14:05:55.342Z,42.13
2018-10-18T14:08:22.665Z,42.40
2018-10-18T14:10:49.757Z,43.07
2018-10-18T14:13:16.872Z,44.80
2018-10-18T14:15:44.073Z,48.42
2018-10-18T14:18:11.350Z,45.83
2018-10-18T14:20:38.497Z,44.43
2018-10-18T14:23:05.709Z,42.70
2018-10-18T14:25:32.962Z,44.40
2018-10-18T14:28:00.120Z,42.27
2018-10-18T14:30:28.532Z,42.57
2018-10-18T14:32:55.629Z,43.80
2018-10-18T14:35:22.805Z,44.00
2018-10-18T14:37:49.992Z,43.53
2018-10-18T14:40:17.145Z,42.53
2018-10-18T14:42:44.298Z,41.20
2018-10-18T14:45:11.560Z,43.93
2018-10-18T14:47:38.843Z,42.10
2018-10-18T14:50:07.802Z,40.70
2018-10-18T14:52:35.021Z,41.70
2018-10-18T14:55:02.166Z,41.67
2018-10-18T14:57:29.445Z,41.83
2018-10-18T15:00:03.630Z,41.93
2018-10-18T15:02:30.821Z,40.03
2018-10-18T15:04:58.146Z,42.97
2018-10-18T15:07:25.353Z,41.33
2018-10-18T15:09:52.562Z,40.73
2018-10-18T15:12:19.705Z,40.60
2018-10-18T15:14:46.976Z,40.47
2018-10-18T15:17:14.196Z,39.27
2018-10-18T15:19:41.349Z,39.47
2018-10-18T15:22:08.553Z,38.50
2018-10-18T15:24:35.680Z,39.10
2018-10-18T15:27:02.980Z,40.13
2018-10-18T15:29:30.033Z,39.77
2018-10-18T15:31:57.264Z,39.73
2018-10-18T15:34:24.348Z,38.00
2018-10-18T15:36:51.536Z,39.63
2018-10-18T15:39:18.893Z,40.10
2018-10-18T15:41:45.904Z,38.77
2018-10-18T15:44:13.263Z,40.63
2018-10-18T15:46:40.368Z,38.80
2018-10-18T15:49:07.968Z,39.93
2018-10-18T15:51:35.648Z,38.57
2018-10-18T15:54:02.856Z,40.60
2018-10-18T15:56:30.049Z,39.23
2018-10-18T15:58:57.398Z,38.67
2018-10-18T16:01:24.542Z,40.43
2018-10-18T16:03:51.681Z,40.23
2018-10-18T16:06:18.944Z,39.63
2018-10-18T16:08:46.203Z,41.03
2018-10-18T16:11:13.404Z,41.43
2018-10-18T16:13:40.533Z,41.43
2018-10-18T16:16:07.923Z,41.17
2018-10-18T16:18:35.086Z,39.53
2018-10-18T16:21:02.425Z,38.73
2018-10-18T16:23:29.579Z,38.60
2018-10-18T16:25:56.820Z,39.97
2018-10-18T16:28:23.935Z,39.50
2018-10-18T16:30:51.085Z,39.40
2018-10-18T16:33:18.474Z,38.63
2018-10-18T16:35:45.683Z,38.50
2018-10-18T16:38:12.900Z,39.10
2018-10-18T16:40:40.225Z,38.87
2018-10-18T16:43:07.657Z,39.40
2018-10-18T16:45:34.861Z,39.27
2018-10-18T16:48:02.487Z,40.33
2018-10-18T16:50:29.740Z,39.77
2018-10-18T16:52:56.963Z,40.70
2018-10-18T16:55:24.172Z,38.40
2018-10-18T16:57:51.449Z,38.13
2018-10-18T17:00:19.109Z,38.60
2018-10-18T17:02:46.582Z,41.43
2018-10-18T17:05:13.840Z,39.83
2018-10-18T17:07:40.987Z,40.07
2018-10-18T17:10:08.251Z,38.53
2018-10-18T17:12:35.365Z,40.60
2018-10-18T17:15:02.545Z,41.13
2018-10-18T17:17:30.566Z,39.80
2018-10-18T17:19:57.843Z,42.27
2018-10-18T17:22:24.979Z,41.67
2018-10-18T17:24:52.256Z,43.97
2018-10-18T17:27:20.043Z,43.30
2018-10-18T17:29:47.213Z,45.40
2018-10-18T17:32:15.004Z,46.37
2018-10-18T17:34:42.277Z,46.70
2018-10-18T17:37:09.491Z,48.43
2018-10-18T17:39:36.622Z,51.93
2018-10-18T17:42:04.149Z,51.57
2018-10-18T17:44:31.330Z,50.97
2018-10-18T17:46:58.516Z,49.53
2018-10-18T17:49:25.796Z,50.57
2018-10-18T17:51:53.064Z,51.03
2018-10-18T17:54:20.331Z,52.10
2018-10-18T17:56:47.557Z,50.97
2018-10-18T17:59:14.791Z,50.53
2018-10-18T18:01:42.082Z,47.53
2018-10-18T18:04:09.318Z,49.07
2018-10-18T18:06:36.588Z,45.00
2018-10-18T18:09:04.634Z,38.07
2018-10-18T18:11:31.882Z,36.63
2018-10-18T18:13:59.056Z,31.30
2018-10-18T18:16:26.344Z,22.63
2018-10-18T18:18:53.523Z,20.40
2018-10-18T18:21:20.658Z,19.20
2018-10-18T18:23:47.774Z,20.77
2018-10-18T18:26:15.057Z,19.93
2018-10-18T18:28:42.223Z,19.07
2018-10-18T18:31:09.410Z,21.07
2018-10-18T18:33:36.631Z,22.90
2018-10-18T18:36:04.161Z,24.43
2018-10-18T18:38:31.308Z,24.43
2018-10-18T18:40:58.490Z,24.20
2018-10-18T18:43:25.657Z,24.73
2018-10-18T18:45:53.834Z,26.60
2018-10-18T18:48:21.132Z,24.87
2018-10-18T18:50:48.380Z,25.60
2018-10-18T18:53:15.532Z,24.90
2018-10-18T18:55:42.719Z,24.70
2018-10-18T18:58:09.896Z,23.83
2018-10-18T19:00:37.058Z,24.87
2018-10-18T19:03:04.928Z,23.60
2018-10-18T19:05:31.985Z,23.90
2018-10-18T19:07:59.136Z,24.57
2018-10-18T19:10:26.324Z,23.37
2018-10-18T19:12:53.457Z,22.30
2018-10-18T19:15:20.705Z,21.73
2018-10-18T19:17:47.908Z,22.83
2018-10-18T19:20:15.068Z,22.80
2018-10-18T19:22:42.307Z,22.53
2018-10-18T19:25:09.549Z,23.07
2018-10-18T19:27:37.389Z,21.47
2018-10-18T19:30:06.376Z,22.10
2018-10-18T19:32:33.560Z,22.10
2018-10-18T19:35:01.378Z,21.60
2018-10-18T19:37:28.543Z,22.07
2018-10-18T19:39:55.914Z,21.20
2018-10-18T19:42:24.975Z,20.30
2018-10-18T19:44:52.454Z,22.23
2018-10-18T19:47:19.740Z,19.37
2018-10-18T19:49:46.905Z,20.33
2018-10-18T19:52:14.124Z,17.77
2018-10-18T19:54:42.509Z,18.93
2018-10-18T19:57:09.851Z,18.57
2018-10-18T19:59:37.920Z,16.10
2018-10-18T20:02:05.886Z,16.07
2018-10-18T20:04:34.117Z,14.47
2018-10-18T20:07:01.241Z,14.87
2018-10-18T20:09:28.538Z,12.43
2018-10-18T20:11:58.173Z,12.70
2018-10-18T20:14:26.330Z,11.33
2018-10-18T20:16:53.929Z,11.20
2018-10-18T20:19:21.073Z,11.43
2018-10-18T20:21:48.217Z,11.17
2018-10-18T20:24:15.438Z,9.90
2018-10-18T20:26:42.612Z,10.27
2018-10-18T20:29:09.835Z,9.40
2018-10-18T20:31:37.070Z,9.20
2018-10-18T20:34:04.585Z,9.43
2018-10-18T20:36:31.744Z,8.20
2018-10-18T20:38:59.011Z,8.27
2018-10-18T20:41:26.797Z,7.90
2018-10-18T20:43:54.144Z,7.90
2018-10-18T20:46:21.487Z,7.83
2018-10-18T20:48:48.620Z,6.57
2018-10-18T20:51:17.290Z,7.47
2018-10-18T20:53:44.548Z,8.03
2018-10-18T20:56:11.673Z,7.00
2018-10-18T20:58:39.181Z,6.80
2018-10-18T21:01:06.538Z,7.00
2018-10-18T21:03:33.676Z,6.30
2018-10-18T21:06:01.001Z,6.30
2018-10-18T21:08:28.636Z,6.63
2018-10-18T21:10:56.069Z,5.80
2018-10-18T21:13:23.340Z,5.80
2018-10-18T21:15:50.612Z,6.10
2018-10-18T21:18:17.761Z,6.23
2018-10-18T21:20:44.913Z,5.10
2018-10-18T21:23:12.247Z,5.20
2018-10-18T21:25:39.352Z,5.73
2018-10-18T21:28:06.498Z,5.97
2018-10-18T21:30:33.769Z,5.40
2018-10-18T21:33:00.978Z,5.00
2018-10-18T21:35:28.153Z,5.60
2018-10-18T21:37:55.314Z,5.43
2018-10-18T21:40:22.445Z,5.43
2018-10-18T21:42:49.591Z,5.30
2018-10-18T21:45:17.218Z,5.23
2018-10-18T21:47:44.329Z,5.70
2018-10-18T21:50:11.448Z,4.43
2018-10-18T21:52:38.611Z,5.00
2018-10-18T21:55:06.711Z,4.27
2018-10-18T21:57:33.885Z,4.60
2018-10-18T22:00:01.098Z,4.53
2018-10-18T22:02:28.227Z,5.27
2018-10-18T22:04:55.475Z,4.27
2018-10-18T22:07:22.872Z,3.90
2018-10-18T22:09:50.000Z,4.10
2018-10-18T22:12:17.166Z,4.83
2018-10-18T22:14:44.433Z,3.80
2018-10-18T22:17:11.700Z,3.17
2018-10-18T22:19:38.834Z,3.63
2018-10-18T22:22:06.100Z,3.40
2018-10-18T22:24:33.232Z,3.80
2018-10-18T22:27:00.479Z,3.77
2018-10-18T22:29:27.640Z,3.13
2018-10-18T22:31:54.779Z,3.57
2018-10-18T22:34:21.905Z,3.43
2018-10-18T22:36:49.238Z,3.40
2018-10-18T22:39:17.321Z,3.80
2018-10-18T22:41:44.452Z,2.80
2018-10-18T22:44:11.655Z,3.00
2018-10-18T22:46:38.798Z,2.77
2018-10-18T22:49:05.916Z,3.30
2018-10-18T22:51:33.105Z,2.80
2018-10-18T22:54:00.261Z,2.93
2018-10-18T22:56:27.432Z,2.53
2018-10-18T22:58:54.664Z,2.70
2018-10-18T23:01:21.781Z,2.27
2018-10-18T23:03:48.917Z,2.03
2018-10-18T23:06:16.115Z,1.93
2018-10-18T23:08:43.314Z,2.30
2018-10-18T23:11:10.493Z,2.30
2018-10-18T23:13:37.757Z,2.63
2018-10-18T23:16:04.946Z,2.33
2018-10-18T23:18:32.094Z,2.13
2018-10-18T23:20:59.313Z,2.47
2018-10-18T23:23:26.434Z,2.13
2018-10-18T23:25:53.568Z,2.07
2018-10-18T23:28:20.768Z,2.00
2018-10-18T23:30:47.909Z,2.37
2018-10-18T23:33:15.045Z,2.83
2018-10-18T23:35:42.224Z,2.43
2018-10-18T23:38:09.359Z,2.27
2018-10-18T23:40:36.473Z,2.17
2018-10-18T23:43:03.703Z,2.40
2018-10-18T23:45:30.827Z,2.20
2018-10-18T23:47:57.970Z,2.03
2018-10-18T23:50:25.164Z,2.67
2018-10-18T23:52:52.324Z,2.47
2018-10-18T23:55:19.476Z,2.10
2018-10-18T23:57:46.667Z,1.80
